sensor_id;sensor_type;location;lat;lon;timestamp;pressure;altitude;pressure_sealevel;temperature;humidity
55538;BME280;41383;51.418;7.286;2023-05-19T00:00:30;100823.66;;;11.82;59.15
55538;BME280;41383;51.418;7.286;2023-05-19T00:02:55;100820.59;;;11.78;59.59
55538;BME280;41383;51.418;7.286;2023-05-19T00:05:21;100821.84;;;11.71;59.72
55538;BME280;41383;51.418;7.286;2023-05-19T00:07:48;100821.59;;;11.72;59.71
55538;BME280;41383;51.418;7.286;2023-05-19T00:10:16;100815.28;;;11.72;59.68
55538;BME280;41383;51.418;7.286;2023-05-19T00:12:42;100820.28;;;11.75;59.48
55538;BME280;41383;51.418;7.286;2023-05-19T00:15:08;100818.78;;;11.67;60.27
55538;BME280;41383;51.418;7.286;2023-05-19T00:17:34;100817.63;;;11.63;59.95
55538;BME280;41383;51.418;7.286;2023-05-19T00:20:02;100816.03;;;11.67;60.08
55538;BME280;41383;51.418;7.286;2023-05-19T00:22:31;100810.34;;;11.68;59.74
55538;BME280;41383;51.418;7.286;2023-05-19T00:24:56;100815.94;;;11.62;59.45
55538;BME280;41383;51.418;7.286;2023-05-19T00:27:22;100810.47;;;11.62;60.15
55538;BME280;41383;51.418;7.286;2023-05-19T00:29:47;100816.91;;;11.55;59.68
55538;BME280;41383;51.418;7.286;2023-05-19T00:32:12;100814.78;;;11.58;60.40
55538;BME280;41383;51.418;7.286;2023-05-19T00:34:37;100814.69;;;11.52;60.18
55538;BME280;41383;51.418;7.286;2023-05-19T00:37:03;100817.75;;;11.39;60.75
55538;BME280;41383;51.418;7.286;2023-05-19T00:39:28;100819.34;;;11.23;61.72
55538;BME280;41383;51.418;7.286;2023-05-19T00:41:53;100812.34;;;11.15;61.87
55538;BME280;41383;51.418;7.286;2023-05-19T00:44:19;100821.63;;;11.14;61.85
55538;BME280;41383;51.418;7.286;2023-05-19T00:46:44;100818.00;;;10.96;62.51
55538;BME280;41383;51.418;7.286;2023-05-19T00:49:09;100819.06;;;10.95;62.62
55538;BME280;41383;51.418;7.286;2023-05-19T00:51:35;100823.00;;;10.87;63.09
55538;BME280;41383;51.418;7.286;2023-05-19T00:54:01;100818.72;;;10.91;62.70
55538;BME280;41383;51.418;7.286;2023-05-19T00:56:26;100820.66;;;10.79;63.33
55538;BME280;41383;51.418;7.286;2023-05-19T00:58:52;100816.38;;;10.71;63.59
55538;BME280;41383;51.418;7.286;2023-05-19T01:01:18;100816.16;;;10.72;63.76
55538;BME280;41383;51.418;7.286;2023-05-19T01:03:46;100812.91;;;10.88;63.22
55538;BME280;41383;51.418;7.286;2023-05-19T01:06:12;100817.41;;;10.94;63.18
55538;BME280;41383;51.418;7.286;2023-05-19T01:08:37;100816.50;;;10.88;63.31
55538;BME280;41383;51.418;7.286;2023-05-19T01:11:04;100813.22;;;11.03;62.64
55538;BME280;41383;51.418;7.286;2023-05-19T01:13:30;100816.91;;;10.97;63.20
55538;BME280;41383;51.418;7.286;2023-05-19T01:22:17;100808.84;;;11.02;62.61
55538;BME280;41383;51.418;7.286;2023-05-19T01:25:14;100809.09;;;10.89;63.26
55538;BME280;41383;51.418;7.286;2023-05-19T01:28:10;100804.50;;;10.89;63.56
55538;BME280;41383;51.418;7.286;2023-05-19T01:30:42;100805.78;;;10.86;63.60
55538;BME280;41383;51.418;7.286;2023-05-19T01:33:10;100809.25;;;10.82;64.01
55538;BME280;41383;51.418;7.286;2023-05-19T01:35:38;100805.69;;;10.81;64.59
55538;BME280;41383;51.418;7.286;2023-05-19T01:38:07;100802.47;;;10.84;64.07
55538;BME280;41383;51.418;7.286;2023-05-19T01:40:33;100805.31;;;10.90;63.91
55538;BME280;41383;51.418;7.286;2023-05-19T01:43:00;100808.16;;;10.95;63.68
55538;BME280;41383;51.418;7.286;2023-05-19T01:45:31;100806.50;;;10.94;63.70
55538;BME280;41383;51.418;7.286;2023-05-19T01:47:59;100801.13;;;10.99;63.85
55538;BME280;41383;51.418;7.286;2023-05-19T01:50:24;100804.78;;;11.05;63.37
55538;BME280;41383;51.418;7.286;2023-05-19T01:52:50;100813.22;;;11.03;63.56
55538;BME280;41383;51.418;7.286;2023-05-19T01:55:16;100811.16;;;11.11;63.19
55538;BME280;41383;51.418;7.286;2023-05-19T02:05:24;100822.63;;;10.95;63.66
55538;BME280;41383;51.418;7.286;2023-05-19T02:08:18;100821.56;;;10.84;64.00
55538;BME280;41383;51.418;7.286;2023-05-19T02:10:50;100822.66;;;10.83;64.03
55538;BME280;41383;51.418;7.286;2023-05-19T02:13:19;100830.25;;;10.81;64.00
55538;BME280;41383;51.418;7.286;2023-05-19T02:15:47;100820.31;;;10.75;64.32
55538;BME280;41383;51.418;7.286;2023-05-19T02:18:13;100821.50;;;10.67;64.62
55538;BME280;41383;51.418;7.286;2023-05-19T02:20:41;100822.56;;;10.66;64.83
55538;BME280;41383;51.418;7.286;2023-05-19T02:23:10;100818.31;;;10.58;64.84
55538;BME280;41383;51.418;7.286;2023-05-19T02:25:35;100818.78;;;10.55;65.14
55538;BME280;41383;51.418;7.286;2023-05-19T02:28:00;100821.97;;;10.52;65.44
55538;BME280;41383;51.418;7.286;2023-05-19T02:30:26;100828.13;;;10.47;65.74
55538;BME280;41383;51.418;7.286;2023-05-19T02:32:54;100821.72;;;10.42;65.49
55538;BME280;41383;51.418;7.286;2023-05-19T02:35:20;100816.63;;;10.33;65.84
55538;BME280;41383;51.418;7.286;2023-05-19T02:37:45;100820.53;;;10.37;65.68
55538;BME280;41383;51.418;7.286;2023-05-19T02:40:10;100804.31;;;10.31;65.75
55538;BME280;41383;51.418;7.286;2023-05-19T02:42:35;100804.31;;;10.43;65.23
55538;BME280;41383;51.418;7.286;2023-05-19T02:45:01;100813.31;;;10.43;64.67
55538;BME280;41383;51.418;7.286;2023-05-19T02:47:26;100816.75;;;10.38;64.84
55538;BME280;41383;51.418;7.286;2023-05-19T02:49:51;100813.34;;;10.31;65.44
55538;BME280;41383;51.418;7.286;2023-05-19T02:52:16;100812.13;;;10.27;65.53
55538;BME280;41383;51.418;7.286;2023-05-19T02:54:42;100815.09;;;10.13;66.03
55538;BME280;41383;51.418;7.286;2023-05-19T02:57:07;100814.63;;;10.04;66.36
55538;BME280;41383;51.418;7.286;2023-05-19T02:59:32;100810.69;;;10.00;66.63
55538;BME280;41383;51.418;7.286;2023-05-19T03:01:59;100810.72;;;10.12;66.16
55538;BME280;41383;51.418;7.286;2023-05-19T03:04:25;100802.63;;;10.06;66.70
55538;BME280;41383;51.418;7.286;2023-05-19T03:06:50;100805.84;;;10.02;66.65
55538;BME280;41383;51.418;7.286;2023-05-19T03:09:15;100803.94;;;10.03;66.89
55538;BME280;41383;51.418;7.286;2023-05-19T03:11:41;100801.94;;;9.98;67.17
55538;BME280;41383;51.418;7.286;2023-05-19T03:14:06;100795.91;;;10.08;66.44
55538;BME280;41383;51.418;7.286;2023-05-19T03:16:34;100799.41;;;9.97;66.97
55538;BME280;41383;51.418;7.286;2023-05-19T03:18:59;100812.59;;;10.00;67.54
55538;BME280;41383;51.418;7.286;2023-05-19T03:21:24;100806.31;;;9.99;66.98
55538;BME280;41383;51.418;7.286;2023-05-19T03:23:49;100808.06;;;9.93;67.29
55538;BME280;41383;51.418;7.286;2023-05-19T03:26:15;100803.94;;;10.03;66.35
55538;BME280;41383;51.418;7.286;2023-05-19T03:28:40;100807.72;;;10.02;66.92
55538;BME280;41383;51.418;7.286;2023-05-19T03:31:05;100813.63;;;9.99;66.65
55538;BME280;41383;51.418;7.286;2023-05-19T03:33:30;100817.44;;;9.98;66.98
55538;BME280;41383;51.418;7.286;2023-05-19T03:35:56;100817.69;;;9.96;66.97
55538;BME280;41383;51.418;7.286;2023-05-19T03:38:21;100815.75;;;9.97;66.81
55538;BME280;41383;51.418;7.286;2023-05-19T03:40:47;100814.81;;;9.91;67.28
55538;BME280;41383;51.418;7.286;2023-05-19T03:43:12;100813.88;;;9.85;67.41
55538;BME280;41383;51.418;7.286;2023-05-19T03:45:37;100806.28;;;9.87;67.54
55538;BME280;41383;51.418;7.286;2023-05-19T03:48:03;100809.72;;;9.83;67.94
55538;BME280;41383;51.418;7.286;2023-05-19T03:50:28;100815.06;;;9.89;67.69
55538;BME280;41383;51.418;7.286;2023-05-19T03:52:55;100809.59;;;9.89;67.69
55538;BME280;41383;51.418;7.286;2023-05-19T03:55:21;100808.78;;;9.89;67.73
55538;BME280;41383;51.418;7.286;2023-05-19T03:57:46;100803.91;;;9.91;67.46
55538;BME280;41383;51.418;7.286;2023-05-19T04:00:12;100808.06;;;9.93;67.57
55538;BME280;41383;51.418;7.286;2023-05-19T04:02:37;100809.38;;;9.91;67.77
55538;BME280;41383;51.418;7.286;2023-05-19T04:05:03;100809.88;;;10.00;67.30
55538;BME280;41383;51.418;7.286;2023-05-19T04:07:31;100811.16;;;9.97;67.50
55538;BME280;41383;51.418;7.286;2023-05-19T04:09:56;100814.22;;;10.01;67.61
55538;BME280;41383;51.418;7.286;2023-05-19T04:12:22;100816.25;;;9.93;67.69
55538;BME280;41383;51.418;7.286;2023-05-19T04:14:47;100813.28;;;9.95;67.63
55538;BME280;41383;51.418;7.286;2023-05-19T04:17:12;100814.72;;;10.10;67.13
55538;BME280;41383;51.418;7.286;2023-05-19T04:19:38;100811.75;;;10.11;67.48
55538;BME280;41383;51.418;7.286;2023-05-19T04:22:04;100819.59;;;10.20;66.78
55538;BME280;41383;51.418;7.286;2023-05-19T04:24:29;100820.66;;;10.19;67.01
55538;BME280;41383;51.418;7.286;2023-05-19T04:26:55;100808.81;;;10.25;67.00
55538;BME280;41383;51.418;7.286;2023-05-19T04:29:20;100811.53;;;10.25;66.97
55538;BME280;41383;51.418;7.286;2023-05-19T04:31:48;100810.97;;;10.23;67.29
55538;BME280;41383;51.418;7.286;2023-05-19T04:34:13;100807.75;;;10.26;67.50
55538;BME280;41383;51.418;7.286;2023-05-19T04:36:38;100812.59;;;10.36;66.89
55538;BME280;41383;51.418;7.286;2023-05-19T04:39:03;100806.09;;;10.25;67.73
55538;BME280;41383;51.418;7.286;2023-05-19T04:41:32;100806.78;;;10.32;67.59
55538;BME280;41383;51.418;7.286;2023-05-19T04:44:00;100812.34;;;10.37;67.25
55538;BME280;41383;51.418;7.286;2023-05-19T04:46:26;100806.31;;;10.35;67.48
55538;BME280;41383;51.418;7.286;2023-05-19T04:48:51;100813.56;;;10.54;66.60
55538;BME280;41383;51.418;7.286;2023-05-19T04:51:18;100817.38;;;10.53;66.78
55538;BME280;41383;51.418;7.286;2023-05-19T04:53:44;100828.25;;;10.65;66.06
55538;BME280;41383;51.418;7.286;2023-05-19T04:56:09;100824.34;;;10.60;66.40
55538;BME280;41383;51.418;7.286;2023-05-19T04:58:37;100820.91;;;10.65;66.34
55538;BME280;41383;51.418;7.286;2023-05-19T05:01:03;100823.16;;;10.68;66.29
55538;BME280;41383;51.418;7.286;2023-05-19T05:03:28;100823.88;;;10.64;66.73
55538;BME280;41383;51.418;7.286;2023-05-19T05:05:54;100828.00;;;10.66;66.81
55538;BME280;41383;51.418;7.286;2023-05-19T05:08:21;100830.53;;;10.68;66.98
55538;BME280;41383;51.418;7.286;2023-05-19T05:10:51;100831.91;;;10.82;66.06
55538;BME280;41383;51.418;7.286;2023-05-19T05:13:17;100835.34;;;10.90;65.77
55538;BME280;41383;51.418;7.286;2023-05-19T05:15:43;100826.91;;;10.91;65.70
55538;BME280;41383;51.418;7.286;2023-05-19T05:18:09;100829.00;;;11.01;65.31
55538;BME280;41383;51.418;7.286;2023-05-19T05:20:34;100826.66;;;10.93;66.27
55538;BME280;41383;51.418;7.286;2023-05-19T05:23:00;100826.97;;;11.08;65.12
55538;BME280;41383;51.418;7.286;2023-05-19T05:25:26;100832.19;;;11.10;65.07
55538;BME280;41383;51.418;7.286;2023-05-19T05:27:51;100832.88;;;11.17;64.21
55538;BME280;41383;51.418;7.286;2023-05-19T05:30:17;100833.22;;;11.21;64.66
55538;BME280;41383;51.418;7.286;2023-05-19T05:32:42;100833.59;;;11.13;65.31
55538;BME280;41383;51.418;7.286;2023-05-19T05:35:07;100829.09;;;11.18;65.28
55538;BME280;41383;51.418;7.286;2023-05-19T05:37:33;100823.00;;;11.28;64.46
55538;BME280;41383;51.418;7.286;2023-05-19T05:39:58;100823.25;;;11.15;65.17
55538;BME280;41383;51.418;7.286;2023-05-19T05:42:23;100825.31;;;11.07;65.81
55538;BME280;41383;51.418;7.286;2023-05-19T05:44:49;100824.09;;;11.15;65.70
55538;BME280;41383;51.418;7.286;2023-05-19T05:47:14;100819.28;;;11.35;64.96
55538;BME280;41383;51.418;7.286;2023-05-19T05:49:40;100821.13;;;11.46;64.88
55538;BME280;41383;51.418;7.286;2023-05-19T05:52:07;100810.78;;;11.48;64.96
55538;BME280;41383;51.418;7.286;2023-05-19T05:54:33;100812.88;;;11.58;64.20
55538;BME280;41383;51.418;7.286;2023-05-19T05:56:59;100811.97;;;11.70;64.31
55538;BME280;41383;51.418;7.286;2023-05-19T05:59:24;100814.66;;;11.82;63.30
55538;BME280;41383;51.418;7.286;2023-05-19T06:01:49;100811.50;;;11.73;63.56
55538;BME280;41383;51.418;7.286;2023-05-19T06:04:15;100809.03;;;11.71;63.69
55538;BME280;41383;51.418;7.286;2023-05-19T06:06:40;100816.44;;;11.76;64.03
55538;BME280;41383;51.418;7.286;2023-05-19T06:09:05;100813.97;;;11.74;63.65
55538;BME280;41383;51.418;7.286;2023-05-19T06:11:31;100821.19;;;11.81;63.57
55538;BME280;41383;51.418;7.286;2023-05-19T06:13:56;100815.94;;;11.62;64.26
55538;BME280;41383;51.418;7.286;2023-05-19T06:16:21;100816.56;;;11.81;63.32
55538;BME280;41383;51.418;7.286;2023-05-19T06:18:47;100818.63;;;11.91;63.33
55538;BME280;41383;51.418;7.286;2023-05-19T06:21:12;100806.59;;;11.92;63.29
55538;BME280;41383;51.418;7.286;2023-05-19T06:23:38;100810.03;;;11.99;62.79
55538;BME280;41383;51.418;7.286;2023-05-19T06:26:04;100809.59;;;12.08;62.52
55538;BME280;41383;51.418;7.286;2023-05-19T06:28:29;100804.66;;;12.22;61.50
55538;BME280;41383;51.418;7.286;2023-05-19T06:30:55;100805.81;;;12.26;61.49
55538;BME280;41383;51.418;7.286;2023-05-19T06:33:20;100803.03;;;12.09;61.67
55538;BME280;41383;51.418;7.286;2023-05-19T06:35:46;100801.41;;;12.08;62.01
55538;BME280;41383;51.418;7.286;2023-05-19T06:38:11;100796.78;;;12.25;61.38
55538;BME280;41383;51.418;7.286;2023-05-19T06:40:36;100793.66;;;12.39;60.70
55538;BME280;41383;51.418;7.286;2023-05-19T06:43:02;100795.03;;;12.36;61.18
55538;BME280;41383;51.418;7.286;2023-05-19T06:45:27;100797.38;;;12.50;60.79
55538;BME280;41383;51.418;7.286;2023-05-19T06:47:52;100799.03;;;12.51;60.52
55538;BME280;41383;51.418;7.286;2023-05-19T06:50:18;100792.19;;;12.48;60.17
55538;BME280;41383;51.418;7.286;2023-05-19T06:52:44;100794.53;;;12.62;59.93
55538;BME280;41383;51.418;7.286;2023-05-19T06:55:11;100795.75;;;12.71;59.82
55538;BME280;41383;51.418;7.286;2023-05-19T06:57:36;100802.34;;;12.76;59.74
55538;BME280;41383;51.418;7.286;2023-05-19T07:00:02;100795.63;;;12.83;58.95
55538;BME280;41383;51.418;7.286;2023-05-19T07:02:28;100789.13;;;12.90;58.81
55538;BME280;41383;51.418;7.286;2023-05-19T07:04:53;100791.63;;;12.91;58.96
55538;BME280;41383;51.418;7.286;2023-05-19T07:07:18;100793.88;;;13.00;58.66
55538;BME280;41383;51.418;7.286;2023-05-19T07:09:43;100792.56;;;13.02;58.68
55538;BME280;41383;51.418;7.286;2023-05-19T07:12:09;100797.53;;;13.05;58.86
55538;BME280;41383;51.418;7.286;2023-05-19T07:14:34;100791.72;;;13.02;58.96
55538;BME280;41383;51.418;7.286;2023-05-19T07:17:01;100791.03;;;13.12;58.89
55538;BME280;41383;51.418;7.286;2023-05-19T07:19:26;100791.66;;;13.19;58.77
55538;BME280;41383;51.418;7.286;2023-05-19T07:21:52;100791.13;;;13.22;58.58
55538;BME280;41383;51.418;7.286;2023-05-19T07:24:17;100790.91;;;13.29;58.25
55538;BME280;41383;51.418;7.286;2023-05-19T07:26:43;100786.31;;;13.35;58.05
55538;BME280;41383;51.418;7.286;2023-05-19T07:29:08;100788.34;;;13.45;57.64
55538;BME280;41383;51.418;7.286;2023-05-19T07:31:34;100784.53;;;13.46;56.91
55538;BME280;41383;51.418;7.286;2023-05-19T07:33:59;100789.47;;;13.49;57.28
55538;BME280;41383;51.418;7.286;2023-05-19T07:36:24;100783.75;;;13.50;56.98
55538;BME280;41383;51.418;7.286;2023-05-19T07:38:50;100782.97;;;13.55;57.24
55538;BME280;41383;51.418;7.286;2023-05-19T07:41:15;100782.47;;;13.58;57.00
55538;BME280;41383;51.418;7.286;2023-05-19T07:43:41;100790.78;;;13.69;56.34
55538;BME280;41383;51.418;7.286;2023-05-19T07:46:06;100785.34;;;13.74;56.77
55538;BME280;41383;51.418;7.286;2023-05-19T07:48:31;100775.50;;;13.78;56.10
55538;BME280;41383;51.418;7.286;2023-05-19T07:50:57;100783.16;;;13.76;56.23
55538;BME280;41383;51.418;7.286;2023-05-19T07:53:22;100786.84;;;13.87;55.65
55538;BME280;41383;51.418;7.286;2023-05-19T07:55:48;100782.72;;;13.89;55.82
55538;BME280;41383;51.418;7.286;2023-05-19T07:58:14;100780.03;;;13.95;56.03
55538;BME280;41383;51.418;7.286;2023-05-19T08:00:39;100781.16;;;13.99;55.94
55538;BME280;41383;51.418;7.286;2023-05-19T08:03:09;100776.75;;;13.98;56.46
55538;BME280;41383;51.418;7.286;2023-05-19T08:05:35;100775.19;;;14.07;55.46
55538;BME280;41383;51.418;7.286;2023-05-19T08:08:01;100774.66;;;14.10;55.29
55538;BME280;41383;51.418;7.286;2023-05-19T08:10:27;100767.00;;;14.18;54.79
55538;BME280;41383;51.418;7.286;2023-05-19T08:12:52;100770.88;;;14.22;55.13
55538;BME280;41383;51.418;7.286;2023-05-19T08:15:17;100767.63;;;14.25;55.14
55538;BME280;41383;51.418;7.286;2023-05-19T08:17:43;100766.56;;;14.31;54.91
55538;BME280;41383;51.418;7.286;2023-05-19T08:20:09;100755.59;;;14.31;54.53
55538;BME280;41383;51.418;7.286;2023-05-19T08:22:36;100759.19;;;14.37;54.65
55538;BME280;41383;51.418;7.286;2023-05-19T08:25:01;100763.06;;;14.46;54.90
55538;BME280;41383;51.418;7.286;2023-05-19T08:27:29;100751.28;;;14.56;54.91
55538;BME280;41383;51.418;7.286;2023-05-19T08:29:55;100750.78;;;14.65;54.32
55538;BME280;41383;51.418;7.286;2023-05-19T08:32:21;100758.50;;;14.68;53.38
55538;BME280;41383;51.418;7.286;2023-05-19T08:34:46;100751.66;;;14.76;53.17
55538;BME280;41383;51.418;7.286;2023-05-19T08:37:11;100752.75;;;14.75;53.09
55538;BME280;41383;51.418;7.286;2023-05-19T08:39:37;100746.53;;;14.85;53.28
55538;BME280;41383;51.418;7.286;2023-05-19T08:42:02;100737.72;;;14.88;52.90
55538;BME280;41383;51.418;7.286;2023-05-19T08:44:28;100744.34;;;14.97;52.97
55538;BME280;41383;51.418;7.286;2023-05-19T08:46:54;100739.44;;;15.04;51.37
55538;BME280;41383;51.418;7.286;2023-05-19T08:49:22;100744.09;;;15.04;50.76
55538;BME280;41383;51.418;7.286;2023-05-19T08:55:23;100724.06;;;15.14;50.92
55538;BME280;41383;51.418;7.286;2023-05-19T08:57:52;100716.38;;;15.21;50.60
55538;BME280;41383;51.418;7.286;2023-05-19T09:00:18;100732.84;;;15.32;50.46
55538;BME280;41383;51.418;7.286;2023-05-19T09:02:44;100732.31;;;15.29;49.35
55538;BME280;41383;51.418;7.286;2023-05-19T09:05:10;100725.75;;;15.25;49.70
55538;BME280;41383;51.418;7.286;2023-05-19T09:07:35;100722.16;;;15.35;49.60
55538;BME280;41383;51.418;7.286;2023-05-19T09:10:02;100722.97;;;15.46;48.98
55538;BME280;41383;51.418;7.286;2023-05-19T09:12:27;100715.00;;;15.60;47.75
55538;BME280;41383;51.418;7.286;2023-05-19T09:14:53;100716.94;;;15.49;47.99
55538;BME280;41383;51.418;7.286;2023-05-19T09:17:18;100729.88;;;15.44;47.94
55538;BME280;41383;51.418;7.286;2023-05-19T09:19:44;100713.09;;;15.56;48.17
55538;BME280;41383;51.418;7.286;2023-05-19T09:22:13;100703.75;;;15.62;48.16
55538;BME280;41383;51.418;7.286;2023-05-19T09:24:39;100707.03;;;15.80;47.78
55538;BME280;41383;51.418;7.286;2023-05-19T09:27:05;100709.19;;;15.93;46.89
55538;BME280;41383;51.418;7.286;2023-05-19T09:29:30;100696.56;;;16.08;46.81
55538;BME280;41383;51.418;7.286;2023-05-19T09:31:56;100690.44;;;16.21;46.49
55538;BME280;41383;51.418;7.286;2023-05-19T09:34:25;100698.19;;;16.14;45.23
55538;BME280;41383;51.418;7.286;2023-05-19T09:36:51;100682.16;;;16.32;45.08
55538;BME280;41383;51.418;7.286;2023-05-19T09:39:21;100692.63;;;16.35;46.18
55538;BME280;41383;51.418;7.286;2023-05-19T09:41:53;100686.50;;;16.49;46.01
55538;BME280;41383;51.418;7.286;2023-05-19T09:44:22;100680.38;;;16.62;45.35
55538;BME280;41383;51.418;7.286;2023-05-19T09:46:52;100677.84;;;16.71;43.97
55538;BME280;41383;51.418;7.286;2023-05-19T09:49:25;100683.06;;;16.78;44.44
55538;BME280;41383;51.418;7.286;2023-05-19T09:51:57;100678.03;;;16.85;43.90
55538;BME280;41383;51.418;7.286;2023-05-19T09:54:24;100673.38;;;16.86;44.35
55538;BME280;41383;51.418;7.286;2023-05-19T09:57:00;100674.44;;;16.90;42.88
55538;BME280;41383;51.418;7.286;2023-05-19T09:59:26;100676.84;;;17.02;44.15
55538;BME280;41383;51.418;7.286;2023-05-19T10:01:57;100668.22;;;17.09;42.58
55538;BME280;41383;51.418;7.286;2023-05-19T10:04:24;100669.25;;;17.23;42.88
55538;BME280;41383;51.418;7.286;2023-05-19T10:06:51;100665.66;;;17.28;43.68
55538;BME280;41383;51.418;7.286;2023-05-19T10:09:22;100658.38;;;17.37;42.96
55538;BME280;41383;51.418;7.286;2023-05-19T10:11:51;100657.78;;;17.46;42.88
55538;BME280;41383;51.418;7.286;2023-05-19T10:14:21;100665.41;;;17.54;42.86
55538;BME280;41383;51.418;7.286;2023-05-19T10:16:53;100655.50;;;17.53;42.07
55538;BME280;41383;51.418;7.286;2023-05-19T10:19:25;100668.09;;;17.59;42.09
55538;BME280;41383;51.418;7.286;2023-05-19T10:21:52;100669.91;;;17.45;43.49
55538;BME280;41383;51.418;7.286;2023-05-19T10:24:17;100667.06;;;17.55;43.25
55538;BME280;41383;51.418;7.286;2023-05-19T10:26:49;100666.31;;;17.74;43.42
55538;BME280;41383;51.418;7.286;2023-05-19T10:29:20;100660.47;;;17.81;43.02
55538;BME280;41383;51.418;7.286;2023-05-19T10:31:49;100660.88;;;17.93;43.24
55538;BME280;41383;51.418;7.286;2023-05-19T10:36:54;100653.03;;;18.06;42.55
55538;BME280;41383;51.418;7.286;2023-05-19T10:39:28;100656.53;;;18.12;42.37
55538;BME280;41383;51.418;7.286;2023-05-19T10:42:15;100654.78;;;18.21;42.25
55538;BME280;41383;51.418;7.286;2023-05-19T10:47:30;100654.22;;;18.24;42.16
55538;BME280;41383;51.418;7.286;2023-05-19T10:49:59;100648.09;;;18.27;41.75
55538;BME280;41383;51.418;7.286;2023-05-19T10:52:24;100644.69;;;18.36;42.09
55538;BME280;41383;51.418;7.286;2023-05-19T10:54:53;100636.84;;;18.43;40.71
55538;BME280;41383;51.418;7.286;2023-05-19T10:57:25;100639.59;;;18.43;41.43
55538;BME280;41383;51.418;7.286;2023-05-19T10:59:56;100635.75;;;18.44;41.56
55538;BME280;41383;51.418;7.286;2023-05-19T11:02:38;100635.59;;;18.54;41.20
55538;BME280;41383;51.418;7.286;2023-05-19T11:07:40;100638.81;;;18.62;41.94
55538;BME280;41383;51.418;7.286;2023-05-19T11:10:06;100636.50;;;18.69;40.12
55538;BME280;41383;51.418;7.286;2023-05-19T11:12:39;100644.69;;;18.74;40.06
55538;BME280;41383;51.418;7.286;2023-05-19T11:15:09;100639.56;;;18.87;41.86
55538;BME280;41383;51.418;7.286;2023-05-19T11:17:35;100637.66;;;19.01;41.13
55538;BME280;41383;51.418;7.286;2023-05-19T11:20:00;100643.94;;;19.07;40.68
55538;BME280;41383;51.418;7.286;2023-05-19T11:22:26;100639.59;;;19.01;40.77
55538;BME280;41383;51.418;7.286;2023-05-19T11:24:55;100631.47;;;19.10;40.42
55538;BME280;41383;51.418;7.286;2023-05-19T11:27:25;100636.81;;;19.20;40.61
55538;BME280;41383;51.418;7.286;2023-05-19T11:29:53;100635.09;;;19.24;41.02
55538;BME280;41383;51.418;7.286;2023-05-19T11:32:19;100629.50;;;19.30;39.16
55538;BME280;41383;51.418;7.286;2023-05-19T11:34:46;100632.47;;;19.33;39.51
55538;BME280;41383;51.418;7.286;2023-05-19T11:37:12;100618.75;;;19.28;40.08
55538;BME280;41383;51.418;7.286;2023-05-19T11:39:38;100611.22;;;19.48;39.82
55538;BME280;41383;51.418;7.286;2023-05-19T11:42:04;100603.00;;;19.57;39.28
55538;BME280;41383;51.418;7.286;2023-05-19T11:44:30;100614.50;;;19.64;40.10
55538;BME280;41383;51.418;7.286;2023-05-19T11:46:56;100613.06;;;19.67;40.15
55538;BME280;41383;51.418;7.286;2023-05-19T11:49:21;100611.31;;;19.71;39.12
55538;BME280;41383;51.418;7.286;2023-05-19T11:51:47;100606.09;;;19.69;39.86
55538;BME280;41383;51.418;7.286;2023-05-19T11:54:12;100604.97;;;19.70;40.28
55538;BME280;41383;51.418;7.286;2023-05-19T11:56:41;100615.94;;;19.76;39.30
55538;BME280;41383;51.418;7.286;2023-05-19T11:59:10;100602.41;;;19.88;39.96
55538;BME280;41383;51.418;7.286;2023-05-19T12:01:35;100619.59;;;19.71;39.31
55538;BME280;41383;51.418;7.286;2023-05-19T12:04:01;100620.03;;;19.78;39.17
55538;BME280;41383;51.418;7.286;2023-05-19T12:06:27;100605.28;;;19.83;39.97
55538;BME280;41383;51.418;7.286;2023-05-19T12:08:53;100603.31;;;19.98;39.53
55538;BME280;41383;51.418;7.286;2023-05-19T12:11:19;100598.00;;;20.01;39.41
55538;BME280;41383;51.418;7.286;2023-05-19T12:13:44;100593.19;;;20.07;39.33
55538;BME280;41383;51.418;7.286;2023-05-19T12:16:09;100587.84;;;20.25;40.31
55538;BME280;41383;51.418;7.286;2023-05-19T12:18:36;100589.88;;;20.33;39.04
55538;BME280;41383;51.418;7.286;2023-05-19T12:21:01;100588.66;;;20.25;39.22
55538;BME280;41383;51.418;7.286;2023-05-19T12:23:27;100585.34;;;20.37;39.06
55538;BME280;41383;51.418;7.286;2023-05-19T12:25:55;100579.63;;;20.34;38.31
55538;BME280;41383;51.418;7.286;2023-05-19T12:28:21;100583.19;;;20.34;39.12
55538;BME280;41383;51.418;7.286;2023-05-19T12:30:48;100580.09;;;20.50;38.64
55538;BME280;41383;51.418;7.286;2023-05-19T12:33:16;100586.63;;;20.03;38.39
55538;BME280;41383;51.418;7.286;2023-05-19T12:35:41;100588.47;;;20.22;37.89
55538;BME280;41383;51.418;7.286;2023-05-19T12:38:06;100576.03;;;20.33;37.81
55538;BME280;41383;51.418;7.286;2023-05-19T12:40:33;100563.72;;;20.39;38.91
55538;BME280;41383;51.418;7.286;2023-05-19T12:42:59;100567.88;;;20.51;38.72
55538;BME280;41383;51.418;7.286;2023-05-19T12:45:24;100559.59;;;20.74;37.16
55538;BME280;41383;51.418;7.286;2023-05-19T12:47:51;100566.31;;;20.82;37.16
55538;BME280;41383;51.418;7.286;2023-05-19T12:50:17;100563.69;;;20.76;37.15
55538;BME280;41383;51.418;7.286;2023-05-19T12:52:48;100561.34;;;20.70;37.04
55538;BME280;41383;51.418;7.286;2023-05-19T12:55:16;100552.41;;;20.73;38.65
55538;BME280;41383;51.418;7.286;2023-05-19T12:57:48;100561.84;;;20.72;37.83
55538;BME280;41383;51.418;7.286;2023-05-19T13:00:21;100550.44;;;20.73;37.38
55538;BME280;41383;51.418;7.286;2023-05-19T13:03:00;100550.53;;;20.82;37.89
55538;BME280;41383;51.418;7.286;2023-05-19T13:05:28;100551.53;;;20.63;37.32
55538;BME280;41383;51.418;7.286;2023-05-19T13:07:54;100553.28;;;20.59;35.61
55538;BME280;41383;51.418;7.286;2023-05-19T13:10:20;100542.28;;;20.68;37.29
55538;BME280;41383;51.418;7.286;2023-05-19T13:12:45;100548.75;;;20.63;37.31